createdAt,value
2022-12-03T00:02:16.908Z,102198.03
2022-12-03T00:04:43.915Z,102203.19
2022-12-03T00:07:11.084Z,102193.28
2022-12-03T00:09:38.016Z,102201.06
2022-12-03T00:12:05.627Z,102198.56
2022-12-03T00:14:32.613Z,102194.13
2022-12-03T00:17:00.125Z,102197.59
2022-12-03T00:19:27.169Z,102199.72
2022-12-03T00:21:54.196Z,102190.13
2022-12-03T00:24:21.228Z,102193.91
2022-12-03T00:26:48.294Z,102184.91
2022-12-03T00:29:15.201Z,102194.56
2022-12-03T00:31:43.327Z,102186.94
2022-12-03T00:34:10.262Z,102194.94
2022-12-03T00:36:37.329Z,102188.84
2022-12-03T00:39:04.436Z,102184.00
2022-12-03T00:41:31.423Z,102194.28
2022-12-03T00:43:58.669Z,102183.72
2022-12-03T00:46:25.903Z,102181.06
2022-12-03T00:48:53.144Z,102186.50
2022-12-03T00:51:20.184Z,102172.47
2022-12-03T00:53:47.805Z,102187.31
2022-12-03T00:56:14.896Z,102178.19
2022-12-03T00:58:41.884Z,102183.19
2022-12-03T01:01:09.504Z,102190.94
2022-12-03T01:03:36.437Z,102183.19
2022-12-03T01:06:03.869Z,102177.75
2022-12-03T01:08:30.816Z,102187.78
2022-12-03T01:10:57.927Z,102191.94
2022-12-03T01:13:25.053Z,102180.16
2022-12-03T01:15:52.162Z,102189.13
2022-12-03T01:18:19.363Z,102189.97
2022-12-03T01:20:46.451Z,102196.22
2022-12-03T01:23:13.351Z,102187.94
2022-12-03T01:25:40.518Z,102188.75
2022-12-03T01:28:07.534Z,102195.72
2022-12-03T01:30:54.418Z,102188.91
2022-12-03T01:33:21.877Z,102185.97
2022-12-03T01:35:48.923Z,102191.56
2022-12-03T01:38:16.005Z,102187.25
2022-12-03T01:40:42.908Z,102178.34
2022-12-03T01:43:10.102Z,102177.66
2022-12-03T01:45:37.117Z,102182.78
2022-12-03T01:48:04.102Z,102185.28
2022-12-03T01:50:33.299Z,102183.31
2022-12-03T01:53:03.126Z,102185.81
2022-12-03T01:55:30.430Z,102181.00
2022-12-03T01:58:02.392Z,102177.91
2022-12-03T02:00:30.700Z,102176.09
2022-12-03T02:03:08.141Z,102169.44
2022-12-03T02:05:35.413Z,102175.19
2022-12-03T02:08:02.471Z,102169.91
2022-12-03T02:10:38.115Z,102165.84
2022-12-03T02:13:07.681Z,102170.56
2022-12-03T02:15:36.112Z,102156.69
2022-12-03T02:18:03.268Z,102174.34
2022-12-03T02:20:33.710Z,102167.38
2022-12-03T02:23:06.864Z,102164.88
2022-12-03T02:25:36.160Z,102179.91
2022-12-03T02:28:04.810Z,102170.63
2022-12-03T02:30:32.507Z,102181.03
2022-12-03T02:32:59.954Z,102177.56
2022-12-03T02:35:35.409Z,102178.38
2022-12-03T02:38:20.998Z,102175.75
2022-12-03T02:40:54.105Z,102173.56
2022-12-03T02:43:22.015Z,102181.19
2022-12-03T02:45:53.913Z,102173.41
2022-12-03T02:48:31.544Z,102180.50
2022-12-03T02:51:03.321Z,102177.56
2022-12-03T02:53:36.633Z,102167.00
2022-12-03T02:56:04.757Z,102172.13
2022-12-03T02:58:34.154Z,102166.00
2022-12-03T03:01:04.052Z,102168.94
2022-12-03T03:03:32.376Z,102176.03
2022-12-03T03:06:02.700Z,102168.94
2022-12-03T03:08:31.740Z,102173.09
2022-12-03T03:11:01.076Z,102171.28
2022-12-03T03:13:30.776Z,102169.47
2022-12-03T03:15:58.116Z,102171.13
2022-12-03T03:18:25.697Z,102170.00
2022-12-03T03:20:53.779Z,102168.91
2022-12-03T03:23:23.891Z,102169.75
2022-12-03T03:26:06.090Z,102163.47
2022-12-03T03:28:40.753Z,102161.97
2022-12-03T03:31:10.868Z,102163.63
2022-12-03T03:33:40.459Z,102161.13
2022-12-03T03:36:08.626Z,102156.53
2022-12-03T03:38:36.716Z,102152.22
2022-12-03T03:41:06.821Z,102156.53
2022-12-03T03:43:36.616Z,102157.53
2022-12-03T03:46:05.875Z,102152.22
2022-12-03T03:48:34.700Z,102150.28
2022-12-03T03:51:04.157Z,102145.28
2022-12-03T03:53:31.474Z,102139.84
2022-12-03T03:55:58.469Z,102135.56
2022-12-03T03:58:25.394Z,102134.72
2022-12-03T04:00:52.686Z,102128.72
2022-12-03T04:03:19.835Z,102137.06
2022-12-03T04:05:47.143Z,102131.47
2022-12-03T04:08:14.370Z,102130.50
2022-12-03T04:10:59.625Z,102132.84
2022-12-03T04:13:27.083Z,102125.22
2022-12-03T04:15:54.135Z,102120.91
2022-12-03T04:18:39.845Z,102125.38
2022-12-03T04:21:25.231Z,102119.56
2022-12-03T04:23:52.349Z,102116.09
2022-12-03T04:26:38.062Z,102118.41
2022-12-03T04:29:05.053Z,102125.66
2022-12-03T04:31:50.543Z,102122.34
2022-12-03T04:34:36.237Z,102109.81
2022-12-03T04:37:03.254Z,102120.38
2022-12-03T04:39:30.157Z,102115.09
2022-12-03T04:41:57.146Z,102116.59
2022-12-03T04:44:39.347Z,102111.47
2022-12-03T04:47:20.636Z,102105.78
2022-12-03T04:49:51.082Z,102125.13
2022-12-03T04:52:20.811Z,102113.03
2022-12-03T04:54:48.006Z,102122.47
2022-12-03T04:57:15.043Z,102103.16
2022-12-03T04:59:42.137Z,102104.97
2022-12-03T05:02:09.267Z,102103.47
2022-12-03T05:04:36.614Z,102113.88
2022-12-03T05:07:03.780Z,102101.63
2022-12-03T05:09:32.592Z,102105.78
2022-12-03T05:11:59.603Z,102095.09
2022-12-03T05:14:26.676Z,102106.34
2022-12-03T05:16:53.644Z,102101.91
2022-12-03T05:19:20.732Z,102092.31
2022-12-03T05:21:47.566Z,102095.78
2022-12-03T05:24:14.886Z,102101.91
2022-12-03T05:26:41.735Z,102093.41
2022-12-03T05:29:08.779Z,102092.59
2022-12-03T05:31:35.777Z,102083.16
2022-12-03T05:34:03.201Z,102094.13
2022-12-03T05:36:30.506Z,102097.59
2022-12-03T05:38:57.444Z,102090.78
2022-12-03T05:41:43.275Z,102095.53
2022-12-03T05:44:10.206Z,102096.66
2022-12-03T05:46:37.214Z,102087.38
2022-12-03T05:49:04.252Z,102093.19
2022-12-03T05:51:31.242Z,102087.22
2022-12-03T05:53:58.278Z,102084.91
2022-12-03T05:56:25.155Z,102090.63
2022-12-03T05:58:52.159Z,102088.00
2022-12-03T06:01:19.243Z,102090.78
2022-12-03T06:03:46.356Z,102094.56
2022-12-03T06:06:13.516Z,102083.63
2022-12-03T06:08:40.448Z,102089.06
2022-12-03T06:11:07.435Z,102082.56
2022-12-03T06:13:34.875Z,102088.81
2022-12-03T06:16:01.775Z,102085.50
2022-12-03T06:18:28.965Z,102096.44
2022-12-03T06:20:55.974Z,102096.44
2022-12-03T06:23:23.009Z,102093.81
2022-12-03T06:25:50.889Z,102095.91
2022-12-03T06:28:17.948Z,102091.31
2022-12-03T06:30:44.873Z,102094.25
2022-12-03T06:33:12.303Z,102089.28
2022-12-03T06:35:39.321Z,102093.03
2022-12-03T06:38:06.417Z,102085.28
2022-12-03T06:40:33.554Z,102099.97
2022-12-03T06:43:00.662Z,102089.44
2022-12-03T06:45:27.670Z,102099.97
2022-12-03T06:47:54.567Z,102086.78
2022-12-03T06:50:21.557Z,102085.66
2022-12-03T06:52:48.679Z,102087.75
2022-12-03T06:55:15.683Z,102088.97
2022-12-03T06:57:42.650Z,102079.84
2022-12-03T07:00:11.534Z,102084.16
2022-12-03T07:02:38.918Z,102096.53
2022-12-03T07:05:06.179Z,102098.19
2022-12-03T07:07:33.434Z,102078.88
2022-12-03T07:10:00.438Z,102085.66
2022-12-03T07:12:27.458Z,102094.41
2022-12-03T07:14:54.426Z,102093.56
2022-12-03T07:17:21.609Z,102078.72
2022-12-03T07:19:48.569Z,102083.00
2022-12-03T07:22:15.711Z,102084.97
2022-12-03T07:24:42.926Z,102087.31
2022-12-03T07:27:10.203Z,102083.84
2022-12-03T07:29:37.676Z,102091.63
2022-12-03T07:32:04.828Z,102090.78
2022-12-03T07:34:31.921Z,102089.66
2022-12-03T07:36:58.807Z,102098.41
2022-12-03T07:39:25.847Z,102087.84
2022-12-03T07:41:52.828Z,102092.00
2022-12-03T07:44:19.902Z,102101.72
2022-12-03T07:46:47.029Z,102094.09
2022-12-03T07:49:14.190Z,102091.31
2022-12-03T07:51:41.428Z,102091.31
2022-12-03T07:54:08.437Z,102080.53
2022-12-03T07:56:35.740Z,102083.84
2022-12-03T07:59:02.890Z,102086.63
2022-12-03T08:01:29.827Z,102084.16
2022-12-03T08:03:57.088Z,102079.03
2022-12-03T08:06:24.143Z,102075.25
2022-12-03T08:08:51.170Z,102085.66
2022-12-03T08:11:18.124Z,102079.84
2022-12-03T08:13:45.061Z,102070.28
2022-12-03T08:16:20.820Z,102067.63
2022-12-03T08:18:50.145Z,102063.03
2022-12-03T08:21:20.368Z,102063.84
2022-12-03T08:23:47.604Z,102066.50
2022-12-03T08:26:30.838Z,102071.63
2022-12-03T08:28:57.842Z,102067.63
2022-12-03T08:31:32.955Z,102066.66
2022-12-03T08:34:21.958Z,102067.34
2022-12-03T08:36:56.572Z,102068.16
2022-12-03T08:39:33.795Z,102057.44
2022-12-03T08:42:43.609Z,102061.91
2022-12-03T08:45:29.984Z,102070.34
2022-12-03T08:48:00.609Z,102061.28
2022-12-03T08:50:32.477Z,102067.41
2022-12-03T08:53:23.964Z,102060.69
2022-12-03T08:55:58.182Z,102060.91
2022-12-03T08:58:36.789Z,102056.16
2022-12-03T09:01:13.240Z,102064.16
2022-12-03T09:03:51.991Z,102055.69
2022-12-03T09:06:19.358Z,102068.81
2022-12-03T09:08:46.366Z,102069.53
2022-12-03T09:11:14.461Z,102061.81
2022-12-03T09:13:41.526Z,102055.69
2022-12-03T09:16:08.637Z,102061.88
2022-12-03T09:18:35.828Z,102069.66
2022-12-03T09:21:02.741Z,102057.78
2022-12-03T09:23:29.685Z,102051.50
2022-12-03T09:25:56.747Z,102047.59
2022-12-03T09:28:23.653Z,102036.84
2022-12-03T09:30:51.015Z,102048.16
2022-12-03T09:33:18.117Z,102047.53
2022-12-03T09:35:45.015Z,102042.25
2022-12-03T09:38:11.915Z,102041.94
2022-12-03T09:40:41.064Z,102042.28
2022-12-03T09:43:08.644Z,102040.31
2022-12-03T09:45:35.671Z,102036.31
2022-12-03T09:48:06.546Z,102034.50
2022-12-03T09:50:33.571Z,102042.44
2022-12-03T09:53:03.774Z,102032.69
2022-12-03T09:55:31.759Z,102038.66
2022-12-03T09:58:00.650Z,102033.38
2022-12-03T10:00:30.355Z,102033.22
2022-12-03T10:03:02.142Z,102023.78
2022-12-03T10:05:30.181Z,102022.97
2022-12-03T10:08:21.907Z,102028.09
2022-12-03T10:10:53.357Z,102017.16
2022-12-03T10:13:28.999Z,102008.56
2022-12-03T10:15:59.128Z,102009.69
2022-12-03T10:18:32.717Z,102011.50
2022-12-03T10:21:03.481Z,102019.44
2022-12-03T10:23:31.582Z,102008.88
2022-12-03T10:26:03.706Z,102019.13
2022-12-03T10:28:39.752Z,102015.84
2022-12-03T10:31:12.590Z,101999.00
2022-12-03T10:33:44.740Z,102002.31
2022-12-03T10:36:24.457Z,101994.88
2022-12-03T10:39:16.796Z,101998.34
2022-12-03T10:41:44.753Z,101991.72
2022-12-03T10:44:28.860Z,101983.28
2022-12-03T10:47:11.575Z,101993.88
2022-12-03T10:49:40.531Z,101992.06
2022-12-03T10:52:25.722Z,101984.66
2022-12-03T10:54:53.759Z,101981.00
2022-12-03T10:57:21.107Z,102008.63
2022-12-03T10:59:48.452Z,101992.78
2022-12-03T11:02:22.450Z,101987.47
2022-12-03T11:04:50.824Z,101978.88
2022-12-03T11:07:20.850Z,101985.19
2022-12-03T11:09:51.684Z,101984.03
2022-12-03T11:12:28.651Z,101988.19
2022-12-03T11:14:56.818Z,101980.91
2022-12-03T11:17:44.833Z,101980.44
2022-12-03T11:20:22.936Z,101972.50
2022-12-03T11:22:55.467Z,101975.81
2022-12-03T11:25:25.655Z,101970.22
2022-12-03T11:28:13.729Z,101980.34
2022-12-03T11:30:53.578Z,101956.69
2022-12-03T11:33:31.780Z,101957.53
2022-12-03T11:36:05.167Z,101954.06
2022-12-03T11:38:37.948Z,101953.19
2022-12-03T11:41:21.626Z,101950.41
2022-12-03T11:43:57.193Z,101956.81
2022-12-03T11:46:36.693Z,101948.38
2022-12-03T11:49:21.455Z,101944.25
2022-12-03T11:51:48.943Z,101940.63
2022-12-03T11:54:18.287Z,101949.84
2022-12-03T11:56:49.404Z,101944.25
2022-12-03T11:59:17.252Z,101948.34
2022-12-03T12:01:44.896Z,101937.94
2022-12-03T12:04:28.777Z,101947.22
2022-12-03T12:06:55.747Z,101954.47
2022-12-03T12:09:53.467Z,101955.97
2022-12-03T12:12:54.850Z,101935.47
2022-12-03T12:15:43.403Z,101954.63
2022-12-03T12:18:39.745Z,101945.88
2022-12-03T12:21:47.597Z,101946.19
2022-12-03T12:24:41.221Z,101941.91
2022-12-03T12:27:10.295Z,101938.44
2022-12-03T12:29:40.354Z,101936.44
2022-12-03T12:32:13.384Z,101938.63
2022-12-03T12:34:53.305Z,101934.47
2022-12-03T12:37:53.537Z,101925.88
2022-12-03T12:40:30.486Z,101931.47
2022-12-03T12:43:26.095Z,101930.50
2022-12-03T12:45:56.231Z,101928.69
2022-12-03T12:48:32.515Z,101928.88
2022-12-03T12:51:19.632Z,101926.06
2022-12-03T12:53:46.984Z,101924.41
2022-12-03T12:56:25.210Z,101926.22
2022-12-03T12:58:52.957Z,101926.06
2022-12-03T13:01:31.934Z,101921.75
2022-12-03T13:03:59.847Z,101912.16
2022-12-03T13:06:31.411Z,101902.41
2022-12-03T13:09:01.033Z,101892.66
2022-12-03T13:11:41.533Z,101896.13
2022-12-03T13:14:22.965Z,101896.28
2022-12-03T13:16:55.983Z,101894.97
2022-12-03T13:19:24.527Z,101893.97
2022-12-03T13:22:13.115Z,101891.31
2022-12-03T13:24:45.246Z,101892.31
2022-12-03T13:27:18.163Z,101898.94
2022-12-03T13:30:08.812Z,101894.63
2022-12-03T13:32:39.402Z,101897.28
2022-12-03T13:35:22.831Z,101887.69
2022-12-03T13:37:50.275Z,101884.38
2022-12-03T13:40:31.191Z,101880.75
2022-12-03T13:42:59.541Z,101882.06
2022-12-03T13:45:32.603Z,101890.31
2022-12-03T13:48:03.851Z,101889.16
2022-12-03T13:50:40.596Z,101888.34
2022-12-03T13:53:29.496Z,101877.41
2022-12-03T13:56:28.684Z,101877.75
2022-12-03T13:59:00.268Z,101884.03
2022-12-03T14:01:28.427Z,101876.09
2022-12-03T14:03:56.598Z,101875.13
2022-12-03T14:06:23.611Z,101869.16
2022-12-03T14:08:51.490Z,101878.75
2022-12-03T14:11:36.847Z,101882.53
2022-12-03T14:14:03.997Z,101884.03
2022-12-03T14:16:31.037Z,101886.69
2022-12-03T14:18:58.093Z,101887.50
2022-12-03T14:21:25.176Z,101882.53
2022-12-03T14:23:52.079Z,101879.06
2022-12-03T14:26:19.220Z,101875.44
2022-12-03T14:28:46.279Z,101881.03
2022-12-03T14:31:13.306Z,101886.34
2022-12-03T14:33:40.630Z,101877.25
2022-12-03T14:36:07.976Z,101875.75
2022-12-03T14:38:35.183Z,101886.84
2022-12-03T14:41:02.263Z,101876.44
2022-12-03T14:43:29.258Z,101876.09
2022-12-03T14:45:56.233Z,101873.81
2022-12-03T14:48:23.540Z,101881.06
2022-12-03T14:50:50.664Z,101883.03
2022-12-03T14:53:20.514Z,101884.34
2022-12-03T14:55:50.299Z,101878.09
2022-12-03T14:58:17.231Z,101882.03
2022-12-03T15:00:44.306Z,101887.31
2022-12-03T15:03:11.346Z,101885.16
2022-12-03T15:05:38.216Z,101895.72
2022-12-03T15:08:05.599Z,101892.25
2022-12-03T15:10:32.697Z,101882.31
2022-12-03T15:12:59.644Z,101890.44
2022-12-03T15:15:27.402Z,101882.50
2022-12-03T15:17:54.448Z,101883.84
2022-12-03T15:20:21.329Z,101880.03
2022-12-03T15:22:48.651Z,101893.09
2022-12-03T15:25:15.969Z,101883.81
2022-12-03T15:27:43.640Z,101889.25
2022-12-03T15:30:10.931Z,101889.94
2022-12-03T15:32:39.988Z,101888.13
2022-12-03T15:35:07.719Z,101885.31
2022-12-03T15:37:34.700Z,101882.00
2022-12-03T15:40:01.911Z,101877.72
2022-12-03T15:42:29.934Z,101876.72
2022-12-03T15:44:56.914Z,101885.97
2022-12-03T15:47:24.203Z,101897.22
2022-12-03T15:49:51.858Z,101887.13
2022-12-03T15:52:18.994Z,101876.41
2022-12-03T15:54:46.512Z,101885.97
2022-12-03T15:57:13.491Z,101879.19
2022-12-03T15:59:40.400Z,101889.63
2022-12-03T16:02:07.559Z,101886.47
2022-12-03T16:04:35.410Z,101889.47
2022-12-03T16:07:03.091Z,101884.34
2022-12-03T16:09:30.026Z,101878.41
2022-12-03T16:11:57.257Z,101877.25
2022-12-03T16:14:24.177Z,101879.22
2022-12-03T16:16:52.141Z,101881.03
2022-12-03T16:19:19.196Z,101874.78
2022-12-03T16:21:46.120Z,101875.59
2022-12-03T16:24:13.522Z,101879.06
2022-12-03T16:26:40.491Z,101871.97
2022-12-03T16:29:07.483Z,101861.03
2022-12-03T16:31:34.506Z,101871.63
2022-12-03T16:34:02.088Z,101875.25
2022-12-03T16:36:29.086Z,101878.56
2022-12-03T16:38:56.431Z,101875.91
2022-12-03T16:41:23.443Z,101876.91
2022-12-03T16:43:50.594Z,101863.03
2022-12-03T16:46:17.519Z,101871.13
2022-12-03T16:48:44.803Z,101867.97
2022-12-03T16:51:11.831Z,101873.09
2022-12-03T16:53:38.875Z,101866.16
2022-12-03T16:56:05.839Z,101863.50
2022-12-03T16:58:32.993Z,101876.09
2022-12-03T17:00:59.860Z,101868.16
2022-12-03T17:03:33.479Z,101876.09
2022-12-03T17:06:02.095Z,101872.78
2022-12-03T17:08:29.150Z,101871.78
2022-12-03T17:10:56.258Z,101873.28
2022-12-03T17:13:23.436Z,101863.19
2022-12-03T17:15:51.035Z,101871.97
2022-12-03T17:18:18.143Z,101872.97
2022-12-03T17:20:45.221Z,101877.41
2022-12-03T17:23:12.892Z,101864.88
2022-12-03T17:25:39.921Z,101868.50
2022-12-03T17:28:06.929Z,101869.66
2022-12-03T17:30:34.037Z,101859.75
2022-12-03T17:33:01.312Z,101860.59
2022-12-03T17:35:28.753Z,101852.16
2022-12-03T17:37:55.812Z,101855.31
2022-12-03T17:40:22.960Z,101856.94
2022-12-03T17:42:50.092Z,101858.78
2022-12-03T17:45:17.250Z,101850.00
2022-12-03T17:47:44.747Z,101863.72
2022-12-03T17:50:11.924Z,101853.00
2022-12-03T17:52:38.846Z,101859.94
2022-12-03T17:55:13.145Z,101846.88
2022-12-03T17:57:41.575Z,101853.31
2022-12-03T18:00:10.113Z,101853.16
2022-12-03T18:02:40.812Z,101850.50
2022-12-03T18:05:08.462Z,101849.53
2022-12-03T18:07:35.543Z,101850.00
2022-12-03T18:10:02.419Z,101854.97
2022-12-03T18:12:29.595Z,101846.69
2022-12-03T18:14:56.546Z,101858.28
2022-12-03T18:17:23.694Z,101862.25
2022-12-03T18:19:50.911Z,101862.75
2022-12-03T18:22:18.200Z,101857.13
2022-12-03T18:24:47.567Z,101855.31
2022-12-03T18:27:17.366Z,101857.31
2022-12-03T18:29:44.471Z,101860.63
2022-12-03T18:32:27.121Z,101852.84
2022-12-03T18:34:55.347Z,101860.47
2022-12-03T18:37:26.516Z,101857.97
2022-12-03T18:39:54.195Z,101853.69
2022-12-03T18:42:23.869Z,101859.63
2022-12-03T18:44:54.386Z,101855.31
2022-12-03T18:47:28.280Z,101860.47
2022-12-03T18:49:56.361Z,101852.69
2022-12-03T18:52:25.280Z,101855.66
2022-12-03T18:54:53.012Z,101852.53
2022-12-03T18:57:20.072Z,101855.66
2022-12-03T18:59:47.099Z,101854.50
2022-12-03T19:05:09.106Z,101857.97
2022-12-03T19:07:36.450Z,101851.84
2022-12-03T19:10:04.598Z,101847.06
2022-12-03T19:12:32.752Z,101850.53
2022-12-03T19:14:59.971Z,101852.69
2022-12-03T19:17:27.468Z,101857.31
2022-12-03T19:19:55.469Z,101857.16
2022-12-03T19:22:23.626Z,101864.25
2022-12-03T19:24:50.924Z,101850.75
2022-12-03T19:27:18.248Z,101850.75
2022-12-03T19:29:48.665Z,101861.31
2022-12-03T19:32:15.963Z,101854.50
2022-12-03T19:34:42.856Z,101858.84
2022-12-03T19:37:10.096Z,101869.25
2022-12-03T19:39:37.130Z,101863.28
2022-12-03T19:42:04.232Z,101867.44
2022-12-03T19:44:31.252Z,101864.25
2022-12-03T19:46:58.350Z,101858.31
2022-12-03T19:49:25.471Z,101863.81
2022-12-03T19:51:52.755Z,101859.34
2022-12-03T19:54:20.015Z,101870.91
2022-12-03T19:56:46.903Z,101860.63
2022-12-03T19:59:14.529Z,101873.41
2022-12-03T20:01:43.223Z,101857.38
2022-12-03T20:04:12.024Z,101864.31
2022-12-03T20:06:39.495Z,101861.50
2022-12-03T20:09:13.763Z,101863.00
2022-12-03T20:11:42.699Z,101863.16
2022-12-03T20:14:14.655Z,101857.03
2022-12-03T20:16:41.715Z,101849.25
2022-12-03T20:19:12.540Z,101834.56
2022-12-03T20:21:40.529Z,101842.81
2022-12-03T20:24:09.635Z,101841.84
2022-12-03T20:26:36.933Z,101849.44
2022-12-03T20:29:03.873Z,101853.72
2022-12-03T20:31:32.290Z,101856.53
2022-12-03T20:34:03.319Z,101854.88
2022-12-03T20:36:32.377Z,101863.00
2022-12-03T20:39:05.776Z,101856.38
2022-12-03T20:41:36.117Z,101859.84
2022-12-03T20:44:05.993Z,101862.81
2022-12-03T20:46:33.568Z,101857.88
2022-12-03T20:49:00.932Z,101868.59
2022-12-03T20:51:30.961Z,101865.97
2022-12-03T20:54:00.350Z,101864.97
2022-12-03T20:56:34.986Z,101863.16
2022-12-03T20:59:08.678Z,101868.28
2022-12-03T21:01:38.421Z,101869.28
2022-12-03T21:04:07.287Z,101868.28
2022-12-03T21:06:37.129Z,101867.28
2022-12-03T21:09:08.872Z,101862.66
2022-12-03T21:11:39.288Z,101860.19
2022-12-03T21:14:06.282Z,101863.31
2022-12-03T21:17:06.425Z,101850.25
2022-12-03T21:19:24.606Z,101869.13
2022-12-03T21:21:51.739Z,101857.03
2022-12-03T21:24:18.841Z,101858.38
2022-12-03T21:26:50.103Z,101863.00
2022-12-03T21:29:18.264Z,101863.81
2022-12-03T21:31:45.208Z,101850.59
2022-12-03T21:34:12.344Z,101852.25
2022-12-03T21:36:40.040Z,101847.94
2022-12-03T21:39:07.407Z,101832.41
2022-12-03T21:41:37.246Z,101836.72
2022-12-03T21:44:04.754Z,101836.03
2022-12-03T21:47:12.278Z,101849.78
2022-12-03T21:49:20.421Z,101835.56
2022-12-03T21:51:47.326Z,101834.88
2022-12-03T21:54:16.726Z,101836.53
2022-12-03T21:56:43.807Z,101836.53
2022-12-03T21:59:10.860Z,101835.56
2022-12-03T22:01:39.661Z,101835.72
2022-12-03T22:04:09.757Z,101840.19
2022-12-03T22:06:36.688Z,101840.19
2022-12-03T22:09:04.143Z,101836.22
2022-12-03T22:11:31.116Z,101841.84
2022-12-03T22:13:58.073Z,101836.38
2022-12-03T22:16:25.250Z,101840.84
2022-12-03T22:18:52.341Z,101854.91
2022-12-03T22:21:20.474Z,101833.91
2022-12-03T22:23:47.675Z,101836.53
2022-12-03T22:26:17.811Z,101832.25
2022-12-03T22:28:47.299Z,101833.06
2022-12-03T22:31:15.085Z,101814.88
2022-12-03T22:33:43.635Z,101836.22
2022-12-03T22:36:19.620Z,101828.28
2022-12-03T22:38:47.955Z,101824.97
2022-12-03T22:41:16.061Z,101823.81
2022-12-03T22:43:43.474Z,101834.56
2022-12-03T22:46:12.511Z,101830.25
2022-12-03T22:48:41.887Z,101829.44
2022-12-03T22:51:21.042Z,101816.19
2022-12-03T22:53:53.598Z,101805.78
2022-12-03T22:56:22.459Z,101808.44
2022-12-03T22:58:51.600Z,101806.44
2022-12-03T23:01:22.280Z,101807.94
2022-12-03T23:03:49.428Z,101799.00
2022-12-03T23:06:16.922Z,101807.28
2022-12-03T23:08:44.584Z,101804.63
2022-12-03T23:11:12.348Z,101803.31
2022-12-03T23:13:40.027Z,101814.06
2022-12-03T23:16:07.444Z,101799.16
2022-12-03T23:18:34.502Z,101793.06
2022-12-03T23:21:01.552Z,101787.09
2022-12-03T23:23:28.833Z,101788.91
2022-12-03T23:26:01.446Z,101796.34
2022-12-03T23:28:30.209Z,101782.97
2022-12-03T23:30:57.357Z,101795.38
2022-12-03T23:33:27.127Z,101797.19
2022-12-03T23:35:54.476Z,101790.06
2022-12-03T23:38:21.561Z,101776.69
2022-12-03T23:40:48.768Z,101783.13
2022-12-03T23:43:16.384Z,101790.56
2022-12-03T23:45:43.461Z,101776.69
2022-12-03T23:48:10.461Z,101783.28
2022-12-03T23:50:41.343Z,101772.03
2022-12-03T23:53:08.923Z,101783.44
2022-12-03T23:55:40.492Z,101785.59
2022-12-03T23:58:07.919Z,101769.06
